<?xml version='1.0' encoding='UTF-8'?>
<gpx xmlns="http://www.topografix.com/GPX/1/1" creator="www.balnam.be" version="1.1" xmlns:xsi="http://www.w3.org/2001/XMLSchema-instance" xsi:schemaLocation="http://www.topografix.com/GPX/1/1 http://www.topografix.com/GPX/1/1/gpx.xsd">
<trk>
<name>bwvlmi20</name>
<cmt>s</cmt>
<desc>Limal Chemin n°i20 </desc>
<link href="https://chemins.be/limal/chemin/i20"/><trkseg>
<trkpt lat="50.702921" lon="4.574578"><time>2026-05-08T05:08:47Z</time></trkpt>
<trkpt lat="50.702902" lon="4.574469"><time>2026-05-08T05:18:47Z</time></trkpt>
<trkpt lat="50.702772" lon="4.573974"><time>2026-05-08T05:28:47Z</time></trkpt>
<trkpt lat="50.702585" lon="4.573302"><time>2026-05-08T05:38:47Z</time></trkpt>
<trkpt lat="50.702411" lon="4.572819"><time>2026-05-08T05:48:47Z</time></trkpt>
<trkpt lat="50.702361" lon="4.572645"><time>2026-05-08T05:58:47Z</time></trkpt>
<trkpt lat="50.702316" lon="4.572444"><time>2026-05-08T06:08:47Z</time></trkpt>
<trkpt lat="50.702309" lon="4.572229"><time>2026-05-08T06:18:47Z</time></trkpt>
<trkpt lat="50.702328" lon="4.572063"><time>2026-05-08T06:28:47Z</time></trkpt>
<trkpt lat="50.702373" lon="4.571887"><time>2026-05-08T06:38:47Z</time></trkpt>
<trkpt lat="50.702634" lon="4.571311"><time>2026-05-08T06:48:47Z</time></trkpt>
<trkpt lat="50.702925" lon="4.570666"><time>2026-05-08T06:58:47Z</time></trkpt>
<trkpt lat="50.703082" lon="4.570134"><time>2026-05-08T07:08:47Z</time></trkpt>
<trkpt lat="50.703190" lon="4.569732"><time>2026-05-08T07:18:47Z</time></trkpt>
<trkpt lat="50.703357" lon="4.569055"><time>2026-05-08T07:28:47Z</time></trkpt>
<trkpt lat="50.703450" lon="4.568887"><time>2026-05-08T07:38:47Z</time></trkpt>
<trkpt lat="50.703584" lon="4.568734"><time>2026-05-08T07:48:47Z</time></trkpt>
<trkpt lat="50.703705" lon="4.568628"><time>2026-05-08T07:58:47Z</time></trkpt>
<trkpt lat="50.703839" lon="4.568580"><time>2026-05-08T08:08:47Z</time></trkpt>
<trkpt lat="50.704187" lon="4.568487"><time>2026-05-08T08:18:47Z</time></trkpt>
<trkpt lat="50.704494" lon="4.568408"><time>2026-05-08T08:28:47Z</time></trkpt>
<trkpt lat="50.704968" lon="4.568256"><time>2026-05-08T08:38:47Z</time></trkpt>
<trkpt lat="50.705179" lon="4.568145"><time>2026-05-08T08:48:47Z</time></trkpt>
<trkpt lat="50.705458" lon="4.567903"><time>2026-05-08T08:58:47Z</time></trkpt>
<trkpt lat="50.705621" lon="4.567732"><time>2026-05-08T09:08:47Z</time></trkpt>
<trkpt lat="50.705655" lon="4.567677"><time>2026-05-08T09:18:47Z</time></trkpt>
<trkpt lat="50.705673" lon="4.567537"><time>2026-05-08T09:28:47Z</time></trkpt>
<trkpt lat="50.705703" lon="4.567379"><time>2026-05-08T09:38:47Z</time></trkpt>
<trkpt lat="50.705736" lon="4.567296"><time>2026-05-08T09:48:47Z</time></trkpt>
<trkpt lat="50.705783" lon="4.567213"><time>2026-05-08T09:58:47Z</time></trkpt>
<trkpt lat="50.706030" lon="4.566999"><time>2026-05-08T10:08:47Z</time></trkpt>
</trkseg>
</trk>
</gpx>